sensor_id;sensor_type;location;lat;lon;timestamp;P1;durP1;ratioP1;P2;durP2;ratioP2
51296;SDS011;37380;45.186;9.792;2022-10-01T00:00:45;31.70;;;27.63;;
51296;SDS011;37380;45.186;9.792;2022-10-01T00:03:19;34.60;;;31.08;;
51296;SDS011;37380;45.186;9.792;2022-10-01T00:06:16;33.30;;;30.02;;
51296;SDS011;37380;45.186;9.792;2022-10-01T00:08:45;36.15;;;30.48;;
51296;SDS011;37380;45.186;9.792;2022-10-01T00:11:21;33.22;;;29.77;;
51296;SDS011;37380;45.186;9.792;2022-10-01T00:13:51;39.25;;;33.08;;
51296;SDS011;37380;45.186;9.792;2022-10-01T00:16:20;37.85;;;29.55;;
51296;SDS011;37380;45.186;9.792;2022-10-01T00:18:56;49.20;;;32.65;;
51296;SDS011;37380;45.186;9.792;2022-10-01T00:21:50;34.75;;;31.15;;
51296;SDS011;37380;45.186;9.792;2022-10-01T00:24:24;38.30;;;30.05;;
51296;SDS011;37380;45.186;9.792;2022-10-01T00:27:25;30.75;;;26.70;;
51296;SDS011;37380;45.186;9.792;2022-10-01T00:30:21;33.78;;;30.15;;
51296;SDS011;37380;45.186;9.792;2022-10-01T00:32:48;35.63;;;31.08;;
51296;SDS011;37380;45.186;9.792;2022-10-01T00:35:19;34.13;;;30.25;;
51296;SDS011;37380;45.186;9.792;2022-10-01T00:37:48;34.15;;;30.70;;
51296;SDS011;37380;45.186;9.792;2022-10-01T00:40:19;36.38;;;28.33;;
51296;SDS011;37380;45.186;9.792;2022-10-01T00:42:47;31.60;;;25.77;;
51296;SDS011;37380;45.186;9.792;2022-10-01T00:45:14;30.38;;;25.23;;
51296;SDS011;37380;45.186;9.792;2022-10-01T00:47:53;33.97;;;27.20;;
51296;SDS011;37380;45.186;9.792;2022-10-01T00:50:30;25.55;;;22.73;;
51296;SDS011;37380;45.186;9.792;2022-10-01T00:53:02;51.40;;;23.65;;
51296;SDS011;37380;45.186;9.792;2022-10-01T00:55:40;28.33;;;23.48;;
51296;SDS011;37380;45.186;9.792;2022-10-01T01:01:47;20.75;;;18.58;;
51296;SDS011;37380;45.186;9.792;2022-10-01T01:04:48;21.75;;;19.63;;
51296;SDS011;37380;45.186;9.792;2022-10-01T01:07:21;25.33;;;21.13;;
51296;SDS011;37380;45.186;9.792;2022-10-01T01:09:48;24.27;;;21.33;;
51296;SDS011;37380;45.186;9.792;2022-10-01T01:15:10;21.25;;;18.90;;
51296;SDS011;37380;45.186;9.792;2022-10-01T01:17:56;22.77;;;17.95;;
51296;SDS011;37380;45.186;9.792;2022-10-01T01:24:01;24.33;;;19.27;;
51296;SDS011;37380;45.186;9.792;2022-10-01T01:30:21;21.23;;;18.92;;
51296;SDS011;37380;45.186;9.792;2022-10-01T01:32:52;25.63;;;21.67;;
51296;SDS011;37380;45.186;9.792;2022-10-01T01:36:03;23.63;;;21.23;;
51296;SDS011;37380;45.186;9.792;2022-10-01T01:38:32;31.83;;;21.90;;
51296;SDS011;37380;45.186;9.792;2022-10-01T01:41:04;25.55;;;21.80;;
51296;SDS011;37380;45.186;9.792;2022-10-01T01:43:33;26.38;;;23.55;;
51296;SDS011;37380;45.186;9.792;2022-10-01T01:46:04;28.15;;;25.42;;
51296;SDS011;37380;45.186;9.792;2022-10-01T01:48:34;27.75;;;23.60;;
51296;SDS011;37380;45.186;9.792;2022-10-01T01:51:09;32.92;;;24.08;;
51296;SDS011;37380;45.186;9.792;2022-10-01T01:53:39;32.00;;;24.83;;
51296;SDS011;37380;45.186;9.792;2022-10-01T01:56:07;35.53;;;27.52;;
51296;SDS011;37380;45.186;9.792;2022-10-01T01:58:40;28.95;;;26.02;;
51296;SDS011;37380;45.186;9.792;2022-10-01T02:01:42;30.20;;;27.23;;
51296;SDS011;37380;45.186;9.792;2022-10-01T02:04:45;33.80;;;28.90;;
51296;SDS011;37380;45.186;9.792;2022-10-01T02:12:55;39.33;;;33.83;;
51296;SDS011;37380;45.186;9.792;2022-10-01T02:18:14;40.28;;;35.35;;
51296;SDS011;37380;45.186;9.792;2022-10-01T02:21:19;36.20;;;32.28;;
51296;SDS011;37380;45.186;9.792;2022-10-01T02:24:00;36.45;;;32.55;;
51296;SDS011;37380;45.186;9.792;2022-10-01T02:26:55;37.50;;;33.33;;
51296;SDS011;37380;45.186;9.792;2022-10-01T02:29:25;42.75;;;35.67;;
51296;SDS011;37380;45.186;9.792;2022-10-01T02:31:54;53.03;;;40.42;;
51296;SDS011;37380;45.186;9.792;2022-10-01T02:34:23;43.20;;;36.60;;
51296;SDS011;37380;45.186;9.792;2022-10-01T02:37:01;44.55;;;36.13;;
51296;SDS011;37380;45.186;9.792;2022-10-01T02:39:58;38.50;;;34.17;;
51296;SDS011;37380;45.186;9.792;2022-10-01T02:42:28;52.78;;;36.20;;
51296;SDS011;37380;45.186;9.792;2022-10-01T02:44:57;51.95;;;34.25;;
51296;SDS011;37380;45.186;9.792;2022-10-01T02:47:43;39.40;;;34.58;;
51296;SDS011;37380;45.186;9.792;2022-10-01T02:50:16;42.13;;;36.70;;
51296;SDS011;37380;45.186;9.792;2022-10-01T02:52:48;43.17;;;35.95;;
51296;SDS011;37380;45.186;9.792;2022-10-01T02:55:30;47.65;;;36.85;;
51296;SDS011;37380;45.186;9.792;2022-10-01T02:58:01;45.05;;;40.17;;
51296;SDS011;37380;45.186;9.792;2022-10-01T03:00:35;51.75;;;37.25;;
51296;SDS011;37380;45.186;9.792;2022-10-01T03:03:36;41.28;;;32.28;;
51296;SDS011;37380;45.186;9.792;2022-10-01T03:06:37;36.08;;;31.70;;
51296;SDS011;37380;45.186;9.792;2022-10-01T03:09:32;40.75;;;33.28;;
51296;SDS011;37380;45.186;9.792;2022-10-01T03:12:02;44.78;;;37.50;;
51296;SDS011;37380;45.186;9.792;2022-10-01T03:14:29;40.67;;;35.42;;
51296;SDS011;37380;45.186;9.792;2022-10-01T03:16:57;35.78;;;31.35;;
51296;SDS011;37380;45.186;9.792;2022-10-01T03:19:31;34.95;;;31.23;;
51296;SDS011;37380;45.186;9.792;2022-10-01T03:22:25;41.00;;;31.75;;
51296;SDS011;37380;45.186;9.792;2022-10-01T03:24:59;34.83;;;29.83;;
51296;SDS011;37380;45.186;9.792;2022-10-01T03:27:57;45.22;;;37.40;;
51296;SDS011;37380;45.186;9.792;2022-10-01T03:30:24;52.70;;;41.60;;
51296;SDS011;37380;45.186;9.792;2022-10-01T03:32:52;48.20;;;38.95;;
51296;SDS011;37380;45.186;9.792;2022-10-01T03:35:19;42.45;;;36.05;;
51296;SDS011;37380;45.186;9.792;2022-10-01T03:37:46;43.05;;;36.67;;
51296;SDS011;37380;45.186;9.792;2022-10-01T03:40:13;46.78;;;37.55;;
51296;SDS011;37380;45.186;9.792;2022-10-01T03:42:40;49.95;;;39.78;;
51296;SDS011;37380;45.186;9.792;2022-10-01T03:45:07;43.88;;;36.80;;
51296;SDS011;37380;45.186;9.792;2022-10-01T03:47:34;50.85;;;38.92;;
51296;SDS011;37380;45.186;9.792;2022-10-01T03:50:08;41.33;;;35.85;;
51296;SDS011;37380;45.186;9.792;2022-10-01T03:53:02;44.83;;;37.83;;
51296;SDS011;37380;45.186;9.792;2022-10-01T03:55:29;47.90;;;38.03;;
51296;SDS011;37380;45.186;9.792;2022-10-01T03:57:56;44.40;;;37.88;;
51296;SDS011;37380;45.186;9.792;2022-10-01T04:00:30;50.38;;;42.78;;
51296;SDS011;37380;45.186;9.792;2022-10-01T04:03:31;46.40;;;36.58;;
51296;SDS011;37380;45.186;9.792;2022-10-01T04:06:32;49.47;;;38.67;;
51296;SDS011;37380;45.186;9.792;2022-10-01T04:09:33;43.13;;;35.38;;
51296;SDS011;37380;45.186;9.792;2022-10-01T04:12:27;49.33;;;38.92;;
51296;SDS011;37380;45.186;9.792;2022-10-01T04:14:54;46.08;;;38.03;;
51296;SDS011;37380;45.186;9.792;2022-10-01T04:17:21;50.97;;;40.35;;
51296;SDS011;37380;45.186;9.792;2022-10-01T04:19:54;56.00;;;38.55;;
51296;SDS011;37380;45.186;9.792;2022-10-01T04:22:55;42.30;;;37.67;;
51296;SDS011;37380;45.186;9.792;2022-10-01T04:26:02;43.88;;;38.08;;
51296;SDS011;37380;45.186;9.792;2022-10-01T04:28:56;46.67;;;37.42;;
51296;SDS011;37380;45.186;9.792;2022-10-01T04:31:23;49.65;;;38.17;;
51296;SDS011;37380;45.186;9.792;2022-10-01T04:33:51;50.40;;;38.72;;
51296;SDS011;37380;45.186;9.792;2022-10-01T04:36:22;46.88;;;40.85;;
51296;SDS011;37380;45.186;9.792;2022-10-01T04:38:53;49.83;;;36.60;;
51296;SDS011;37380;45.186;9.792;2022-10-01T04:41:27;55.47;;;40.25;;
51296;SDS011;37380;45.186;9.792;2022-10-01T04:43:57;52.80;;;39.80;;
51296;SDS011;37380;45.186;9.792;2022-10-01T04:46:26;55.78;;;38.58;;
51296;SDS011;37380;45.186;9.792;2022-10-01T04:49:01;45.20;;;34.20;;
51296;SDS011;37380;45.186;9.792;2022-10-01T04:51:48;46.50;;;36.07;;
51296;SDS011;37380;45.186;9.792;2022-10-01T04:54:15;40.78;;;35.22;;
51296;SDS011;37380;45.186;9.792;2022-10-01T04:56:42;48.00;;;36.80;;
51296;SDS011;37380;45.186;9.792;2022-10-01T04:59:09;45.83;;;37.78;;
51296;SDS011;37380;45.186;9.792;2022-10-01T05:01:42;47.88;;;34.92;;
51296;SDS011;37380;45.186;9.792;2022-10-01T05:04:43;44.50;;;36.90;;
51296;SDS011;37380;45.186;9.792;2022-10-01T05:07:37;47.50;;;35.53;;
51296;SDS011;37380;45.186;9.792;2022-10-01T05:10:12;44.55;;;36.13;;
51296;SDS011;37380;45.186;9.792;2022-10-01T05:12:41;46.40;;;35.28;;
51296;SDS011;37380;45.186;9.792;2022-10-01T05:15:08;46.88;;;34.58;;
51296;SDS011;37380;45.186;9.792;2022-10-01T05:17:35;45.50;;;35.15;;
51296;SDS011;37380;45.186;9.792;2022-10-01T05:20:17;43.25;;;35.25;;
51296;SDS011;37380;45.186;9.792;2022-10-01T05:23:19;45.83;;;34.47;;
51296;SDS011;37380;45.186;9.792;2022-10-01T05:26:13;47.38;;;34.33;;
51296;SDS011;37380;45.186;9.792;2022-10-01T05:28:40;53.10;;;36.38;;
51296;SDS011;37380;45.186;9.792;2022-10-01T05:31:10;45.35;;;35.13;;
51296;SDS011;37380;45.186;9.792;2022-10-01T05:33:39;43.15;;;35.35;;
51296;SDS011;37380;45.186;9.792;2022-10-01T05:36:05;50.08;;;38.05;;
51296;SDS011;37380;45.186;9.792;2022-10-01T05:38:33;47.25;;;35.53;;
51296;SDS011;37380;45.186;9.792;2022-10-01T05:41:03;40.58;;;31.40;;
51296;SDS011;37380;45.186;9.792;2022-10-01T05:43:30;44.67;;;34.47;;
51296;SDS011;37380;45.186;9.792;2022-10-01T05:46:01;39.25;;;33.67;;
51296;SDS011;37380;45.186;9.792;2022-10-01T05:48:30;41.70;;;33.13;;
51296;SDS011;37380;45.186;9.792;2022-10-01T05:51:03;37.80;;;31.65;;
51296;SDS011;37380;45.186;9.792;2022-10-01T05:53:34;39.88;;;31.52;;
51296;SDS011;37380;45.186;9.792;2022-10-01T05:56:05;40.67;;;32.70;;
51296;SDS011;37380;45.186;9.792;2022-10-01T05:58:39;41.28;;;31.95;;
51296;SDS011;37380;45.186;9.792;2022-10-01T06:01:40;49.20;;;34.28;;
51296;SDS011;37380;45.186;9.792;2022-10-01T06:04:41;43.20;;;33.20;;
51296;SDS011;37380;45.186;9.792;2022-10-01T06:07:42;35.03;;;30.23;;
51296;SDS011;37380;45.186;9.792;2022-10-01T06:10:43;38.28;;;30.05;;
51296;SDS011;37380;45.186;9.792;2022-10-01T06:13:37;36.42;;;26.55;;
51296;SDS011;37380;45.186;9.792;2022-10-01T06:16:05;32.70;;;25.63;;
51296;SDS011;37380;45.186;9.792;2022-10-01T06:18:39;31.35;;;25.60;;
51296;SDS011;37380;45.186;9.792;2022-10-01T06:21:34;31.58;;;25.33;;
51296;SDS011;37380;45.186;9.792;2022-10-01T06:24:08;29.48;;;22.92;;
51296;SDS011;37380;45.186;9.792;2022-10-01T06:27:02;26.77;;;23.77;;
51296;SDS011;37380;45.186;9.792;2022-10-01T06:29:29;34.95;;;24.35;;
51296;SDS011;37380;45.186;9.792;2022-10-01T06:31:56;31.45;;;25.58;;
51296;SDS011;37380;45.186;9.792;2022-10-01T06:34:23;33.55;;;24.95;;
51296;SDS011;37380;45.186;9.792;2022-10-01T06:36:58;25.77;;;23.05;;
51296;SDS011;37380;45.186;9.792;2022-10-01T06:39:52;25.27;;;21.90;;
51296;SDS011;37380;45.186;9.792;2022-10-01T06:42:26;40.55;;;24.38;;
51296;SDS011;37380;45.186;9.792;2022-10-01T06:45:20;26.88;;;22.67;;
51296;SDS011;37380;45.186;9.792;2022-10-01T06:47:52;30.80;;;23.30;;
51296;SDS011;37380;45.186;9.792;2022-10-01T06:50:20;27.77;;;20.80;;
51296;SDS011;37380;45.186;9.792;2022-10-01T06:52:48;30.98;;;22.75;;
51296;SDS011;37380;45.186;9.792;2022-10-01T06:55:16;33.70;;;22.17;;
51296;SDS011;37380;45.186;9.792;2022-10-01T06:57:55;27.27;;;20.73;;
51296;SDS011;37380;45.186;9.792;2022-10-01T07:00:32;29.23;;;22.13;;
51296;SDS011;37380;45.186;9.792;2022-10-01T07:03:28;29.67;;;20.15;;
51296;SDS011;37380;45.186;9.792;2022-10-01T07:06:30;35.70;;;22.33;;
51296;SDS011;37380;45.186;9.792;2022-10-01T07:09:31;28.08;;;21.98;;
51296;SDS011;37380;45.186;9.792;2022-10-01T07:12:28;28.87;;;21.63;;
51296;SDS011;37380;45.186;9.792;2022-10-01T07:14:55;26.90;;;20.77;;
51296;SDS011;37380;45.186;9.792;2022-10-01T07:17:22;27.45;;;20.17;;
51296;SDS011;37380;45.186;9.792;2022-10-01T07:19:50;29.90;;;22.60;;
51296;SDS011;37380;45.186;9.792;2022-10-01T07:22:17;30.52;;;20.33;;
51296;SDS011;37380;45.186;9.792;2022-10-01T07:24:51;30.67;;;18.55;;
51296;SDS011;37380;45.186;9.792;2022-10-01T07:27:45;25.65;;;20.05;;
51296;SDS011;37380;45.186;9.792;2022-10-01T07:30:12;23.63;;;18.13;;
51296;SDS011;37380;45.186;9.792;2022-10-01T07:32:42;22.58;;;18.35;;
51296;SDS011;37380;45.186;9.792;2022-10-01T07:35:10;22.55;;;19.35;;
51296;SDS011;37380;45.186;9.792;2022-10-01T07:37:37;26.30;;;18.67;;
51296;SDS011;37380;45.186;9.792;2022-10-01T07:40:11;28.35;;;19.55;;
51296;SDS011;37380;45.186;9.792;2022-10-01T07:43:05;24.75;;;17.48;;
51296;SDS011;37380;45.186;9.792;2022-10-01T07:45:32;21.58;;;17.10;;
51296;SDS011;37380;45.186;9.792;2022-10-01T07:48:00;21.45;;;18.25;;
51296;SDS011;37380;45.186;9.792;2022-10-01T07:50:28;21.08;;;17.67;;
51296;SDS011;37380;45.186;9.792;2022-10-01T07:52:56;18.02;;;16.23;;
51296;SDS011;37380;45.186;9.792;2022-10-01T07:55:25;30.55;;;17.65;;
51296;SDS011;37380;45.186;9.792;2022-10-01T07:57:55;22.08;;;17.95;;
51296;SDS011;37380;45.186;9.792;2022-10-01T08:00:30;18.70;;;16.80;;
51296;SDS011;37380;45.186;9.792;2022-10-01T08:03:26;23.00;;;15.40;;
51296;SDS011;37380;45.186;9.792;2022-10-01T08:06:16;23.05;;;17.80;;
51296;SDS011;37380;45.186;9.792;2022-10-01T08:08:50;18.90;;;15.60;;
51296;SDS011;37380;45.186;9.792;2022-10-01T08:11:17;24.23;;;19.52;;
51296;SDS011;37380;45.186;9.792;2022-10-01T08:13:44;23.63;;;19.75;;
51296;SDS011;37380;45.186;9.792;2022-10-01T08:16:20;24.35;;;18.25;;
51296;SDS011;37380;45.186;9.792;2022-10-01T08:19:22;25.67;;;19.48;;
51296;SDS011;37380;45.186;9.792;2022-10-01T08:22:16;20.40;;;17.98;;
51296;SDS011;37380;45.186;9.792;2022-10-01T08:24:50;30.20;;;18.42;;
51296;SDS011;37380;45.186;9.792;2022-10-01T08:27:44;23.85;;;18.13;;
51296;SDS011;37380;45.186;9.792;2022-10-01T08:30:11;21.20;;;16.65;;
51296;SDS011;37380;45.186;9.792;2022-10-01T08:32:38;22.00;;;18.77;;
51296;SDS011;37380;45.186;9.792;2022-10-01T08:35:05;24.35;;;18.67;;
51296;SDS011;37380;45.186;9.792;2022-10-01T08:37:32;22.17;;;17.65;;
51296;SDS011;37380;45.186;9.792;2022-10-01T08:40:00;20.67;;;17.52;;
51296;SDS011;37380;45.186;9.792;2022-10-01T08:42:37;26.70;;;18.45;;
51296;SDS011;37380;45.186;9.792;2022-10-01T08:48:21;29.20;;;20.50;;
51296;SDS011;37380;45.186;9.792;2022-10-01T08:54:43;23.92;;;18.23;;
51296;SDS011;37380;45.186;9.792;2022-10-01T08:57:18;26.20;;;19.85;;
51296;SDS011;37380;45.186;9.792;2022-10-01T08:59:56;23.88;;;18.67;;
51296;SDS011;37380;45.186;9.792;2022-10-01T09:02:40;34.58;;;17.55;;
51296;SDS011;37380;45.186;9.792;2022-10-01T09:11:30;24.25;;;18.77;;
51296;SDS011;37380;45.186;9.792;2022-10-01T09:14:21;26.42;;;17.55;;
51296;SDS011;37380;45.186;9.792;2022-10-01T09:23:52;21.90;;;17.25;;
51296;SDS011;37380;45.186;9.792;2022-10-01T09:27:16;20.17;;;16.73;;
51296;SDS011;37380;45.186;9.792;2022-10-01T09:30:17;20.95;;;18.08;;
51296;SDS011;37380;45.186;9.792;2022-10-01T09:33:03;19.92;;;17.83;;
51296;SDS011;37380;45.186;9.792;2022-10-01T09:35:45;26.08;;;19.08;;
51296;SDS011;37380;45.186;9.792;2022-10-01T09:40:53;25.23;;;20.25;;
51296;SDS011;37380;45.186;9.792;2022-10-01T09:43:22;25.40;;;18.73;;
51296;SDS011;37380;45.186;9.792;2022-10-01T09:45:52;26.35;;;19.27;;
51296;SDS011;37380;45.186;9.792;2022-10-01T09:51:02;26.80;;;20.55;;
51296;SDS011;37380;45.186;9.792;2022-10-01T09:53:36;25.63;;;20.65;;
51296;SDS011;37380;45.186;9.792;2022-10-01T09:56:11;29.77;;;19.02;;
51296;SDS011;37380;45.186;9.792;2022-10-01T09:58:44;18.52;;;16.55;;
51296;SDS011;37380;45.186;9.792;2022-10-01T10:01:24;19.92;;;17.58;;
51296;SDS011;37380;45.186;9.792;2022-10-01T10:04:37;28.40;;;16.80;;
51296;SDS011;37380;45.186;9.792;2022-10-01T10:07:31;18.92;;;14.90;;
51296;SDS011;37380;45.186;9.792;2022-10-01T10:10:07;17.27;;;15.27;;
51296;SDS011;37380;45.186;9.792;2022-10-01T10:12:37;15.35;;;13.80;;
51296;SDS011;37380;45.186;9.792;2022-10-01T10:15:07;14.82;;;13.27;;
51296;SDS011;37380;45.186;9.792;2022-10-01T10:17:42;16.20;;;13.10;;
51296;SDS011;37380;45.186;9.792;2022-10-01T10:23:21;15.30;;;12.82;;
51296;SDS011;37380;45.186;9.792;2022-10-01T10:26:32;17.73;;;13.65;;
51296;SDS011;37380;45.186;9.792;2022-10-01T10:29:29;12.50;;;11.20;;
51296;SDS011;37380;45.186;9.792;2022-10-01T10:32:07;13.93;;;12.52;;
51296;SDS011;37380;45.186;9.792;2022-10-01T10:34:41;15.77;;;11.40;;
51296;SDS011;37380;45.186;9.792;2022-10-01T10:37:21;12.65;;;11.43;;
51296;SDS011;37380;45.186;9.792;2022-10-01T10:40:24;11.73;;;10.65;;
51296;SDS011;37380;45.186;9.792;2022-10-01T10:42:56;16.10;;;11.90;;
51296;SDS011;37380;45.186;9.792;2022-10-01T10:45:32;11.40;;;10.32;;
51296;SDS011;37380;45.186;9.792;2022-10-01T10:48:26;12.15;;;10.93;;
51296;SDS011;37380;45.186;9.792;2022-10-01T10:50:58;12.40;;;11.20;;
51296;SDS011;37380;45.186;9.792;2022-10-01T10:53:28;12.68;;;11.02;;
51296;SDS011;37380;45.186;9.792;2022-10-01T10:56:05;11.95;;;10.55;;
51296;SDS011;37380;45.186;9.792;2022-10-01T10:58:41;12.85;;;10.60;;
51296;SDS011;37380;45.186;9.792;2022-10-01T11:01:19;11.32;;;10.40;;
51296;SDS011;37380;45.186;9.792;2022-10-01T11:04:40;11.07;;;10.02;;
51296;SDS011;37380;45.186;9.792;2022-10-01T11:07:18;11.70;;;9.38;;
51296;SDS011;37380;45.186;9.792;2022-10-01T11:26:59;9.70;;;8.90;;
51296;SDS011;37380;45.186;9.792;2022-10-01T11:32:44;11.98;;;9.25;;
51296;SDS011;37380;45.186;9.792;2022-10-01T11:41:47;11.00;;;9.90;;
51296;SDS011;37380;45.186;9.792;2022-10-01T11:44:53;13.82;;;9.85;;
51296;SDS011;37380;45.186;9.792;2022-10-01T11:48:00;9.80;;;8.90;;
51296;SDS011;37380;45.186;9.792;2022-10-01T11:50:36;9.65;;;8.68;;
51296;SDS011;37380;45.186;9.792;2022-10-01T11:53:11;16.33;;;8.65;;
51296;SDS011;37380;45.186;9.792;2022-10-01T11:55:53;13.98;;;8.32;;
51296;SDS011;37380;45.186;9.792;2022-10-01T12:01:25;8.65;;;7.00;;
51296;SDS011;37380;45.186;9.792;2022-10-01T12:04:44;9.73;;;7.47;;
51296;SDS011;37380;45.186;9.792;2022-10-01T12:07:58;6.82;;;6.20;;
51296;SDS011;37380;45.186;9.792;2022-10-01T12:13:30;7.20;;;6.55;;
51296;SDS011;37380;45.186;9.792;2022-10-01T12:16:17;11.25;;;7.78;;
51296;SDS011;37380;45.186;9.792;2022-10-01T12:19:22;7.15;;;6.57;;
51296;SDS011;37380;45.186;9.792;2022-10-01T12:24:48;8.13;;;7.22;;
51296;SDS011;37380;45.186;9.792;2022-10-01T12:28:05;10.45;;;7.05;;
51296;SDS011;37380;45.186;9.792;2022-10-01T12:31:39;9.38;;;6.03;;
51296;SDS011;37380;45.186;9.792;2022-10-01T12:36:24;10.30;;;6.75;;
51296;SDS011;37380;45.186;9.792;2022-10-01T12:57:29;6.38;;;5.30;;
51296;SDS011;37380;45.186;9.792;2022-10-01T13:00:24;5.50;;;4.50;;
51296;SDS011;37380;45.186;9.792;2022-10-01T13:03:54;9.77;;;7.30;;
51296;SDS011;37380;45.186;9.792;2022-10-01T13:15:03;5.88;;;5.32;;
51296;SDS011;37380;45.186;9.792;2022-10-01T13:17:44;9.90;;;6.05;;
51296;SDS011;37380;45.186;9.792;2022-10-01T13:20:35;4.72;;;4.10;;
51296;SDS011;37380;45.186;9.792;2022-10-01T13:26:35;9.18;;;4.25;;
51296;SDS011;37380;45.186;9.792;2022-10-01T13:32:01;6.13;;;4.45;;
51296;SDS011;37380;45.186;9.792;2022-10-01T13:37:47;7.65;;;4.45;;
51296;SDS011;37380;45.186;9.792;2022-10-01T13:39:58;4.78;;;4.10;;
51296;SDS011;37380;45.186;9.792;2022-10-01T13:42:27;4.43;;;3.90;;
51296;SDS011;37380;45.186;9.792;2022-10-01T13:44:57;4.43;;;3.80;;
51296;SDS011;37380;45.186;9.792;2022-10-01T13:47:28;6.75;;;4.20;;
51296;SDS011;37380;45.186;9.792;2022-10-01T13:50:01;4.63;;;3.15;;
51296;SDS011;37380;45.186;9.792;2022-10-01T13:52:50;10.20;;;4.82;;
51296;SDS011;37380;45.186;9.792;2022-10-01T13:55:45;6.60;;;4.65;;
51296;SDS011;37380;45.186;9.792;2022-10-01T13:58:48;6.63;;;6.00;;
51296;SDS011;37380;45.186;9.792;2022-10-01T14:01:42;5.43;;;4.93;;
51296;SDS011;37380;45.186;9.792;2022-10-01T14:04:24;9.88;;;5.10;;
51296;SDS011;37380;45.186;9.792;2022-10-01T14:07:37;4.20;;;3.80;;
51296;SDS011;37380;45.186;9.792;2022-10-01T14:09:57;4.05;;;3.55;;
51296;SDS011;37380;45.186;9.792;2022-10-01T14:13:01;6.35;;;2.55;;
51296;SDS011;37380;45.186;9.792;2022-10-01T14:16:14;5.65;;;2.55;;
51296;SDS011;37380;45.186;9.792;2022-10-01T14:18:42;6.10;;;2.42;;
51296;SDS011;37380;45.186;9.792;2022-10-01T14:31:20;3.88;;;2.55;;
51296;SDS011;37380;45.186;9.792;2022-10-01T14:39:34;6.10;;;2.85;;
51296;SDS011;37380;45.186;9.792;2022-10-01T14:42:28;3.22;;;2.20;;
51296;SDS011;37380;45.186;9.792;2022-10-01T14:44:55;5.18;;;2.00;;
51296;SDS011;37380;45.186;9.792;2022-10-01T14:47:23;4.45;;;2.42;;
51296;SDS011;37380;45.186;9.792;2022-10-01T14:49:53;2.50;;;2.30;;
51296;SDS011;37380;45.186;9.792;2022-10-01T14:52:28;3.67;;;2.40;;
51296;SDS011;37380;45.186;9.792;2022-10-01T14:55:23;2.65;;;1.80;;
51296;SDS011;37380;45.186;9.792;2022-10-01T14:57:52;3.70;;;1.92;;
51296;SDS011;37380;45.186;9.792;2022-10-01T15:00:26;3.40;;;2.42;;
51296;SDS011;37380;45.186;9.792;2022-10-01T15:03:12;7.97;;;1.85;;
51296;SDS011;37380;45.186;9.792;2022-10-01T15:05:44;2.42;;;2.22;;
51296;SDS011;37380;45.186;9.792;2022-10-01T15:08:13;3.45;;;2.15;;
51296;SDS011;37380;45.186;9.792;2022-10-01T15:10:51;3.28;;;1.85;;
51296;SDS011;37380;45.186;9.792;2022-10-01T15:13:29;5.32;;;2.33;;
51296;SDS011;37380;45.186;9.792;2022-10-01T15:16:33;3.72;;;1.88;;
51296;SDS011;37380;45.186;9.792;2022-10-01T15:19:28;3.65;;;1.70;;
51296;SDS011;37380;45.186;9.792;2022-10-01T15:21:57;11.25;;;1.80;;
51296;SDS011;37380;45.186;9.792;2022-10-01T15:24:37;2.35;;;2.15;;
51296;SDS011;37380;45.186;9.792;2022-10-01T15:27:41;1.98;;;1.70;;
51296;SDS011;37380;45.186;9.792;2022-10-01T15:30:42;1.65;;;1.55;;
51296;SDS011;37380;45.186;9.792;2022-10-01T15:33:43;1.63;;;1.38;;
51296;SDS011;37380;45.186;9.792;2022-10-01T15:36:21;4.18;;;1.70;;
51296;SDS011;37380;45.186;9.792;2022-10-01T15:38:48;5.22;;;2.50;;
51296;SDS011;37380;45.186;9.792;2022-10-01T15:41:20;1.52;;;1.20;;
51296;SDS011;37380;45.186;9.792;2022-10-01T15:43:58;2.70;;;1.30;;
51296;SDS011;37380;45.186;9.792;2022-10-01T15:46:29;1.52;;;1.38;;
51296;SDS011;37380;45.186;9.792;2022-10-01T15:49:23;4.20;;;1.83;;
51296;SDS011;37380;45.186;9.792;2022-10-01T15:51:56;2.70;;;1.83;;
51296;SDS011;37380;45.186;9.792;2022-10-01T15:54:45;3.38;;;3.08;;
51296;SDS011;37380;45.186;9.792;2022-10-01T15:57:31;2.92;;;2.20;;
51296;SDS011;37380;45.186;9.792;2022-10-01T15:59:59;7.15;;;2.85;;
51296;SDS011;37380;45.186;9.792;2022-10-01T16:02:27;3.45;;;1.88;;
51296;SDS011;37380;45.186;9.792;2022-10-01T16:05:04;4.53;;;2.15;;
51296;SDS011;37380;45.186;9.792;2022-10-01T16:07:32;5.18;;;2.00;;
51296;SDS011;37380;45.186;9.792;2022-10-01T16:16:28;3.20;;;2.17;;
51296;SDS011;37380;45.186;9.792;2022-10-01T16:18:57;5.50;;;2.08;;
51296;SDS011;37380;45.186;9.792;2022-10-01T16:21:24;6.85;;;2.17;;
51296;SDS011;37380;45.186;9.792;2022-10-01T16:23:58;6.55;;;2.50;;
51296;SDS011;37380;45.186;9.792;2022-10-01T16:26:59;1.50;;;1.40;;
51296;SDS011;37380;45.186;9.792;2022-10-01T16:30:02;5.05;;;2.22;;
51296;SDS011;37380;45.186;9.792;2022-10-01T16:33:22;7.53;;;2.30;;
51296;SDS011;37380;45.186;9.792;2022-10-01T16:36:23;2.33;;;2.10;;
51296;SDS011;37380;45.186;9.792;2022-10-01T16:39:17;2.60;;;1.80;;
51296;SDS011;37380;45.186;9.792;2022-10-01T16:41:45;5.03;;;2.40;;
51296;SDS011;37380;45.186;9.792;2022-10-01T16:44:32;2.45;;;1.95;;
51296;SDS011;37380;45.186;9.792;2022-10-01T16:47:00;3.92;;;2.50;;
51296;SDS011;37380;45.186;9.792;2022-10-01T16:49:27;2.28;;;1.92;;
51296;SDS011;37380;45.186;9.792;2022-10-01T16:51:54;4.22;;;2.83;;
51296;SDS011;37380;45.186;9.792;2022-10-01T16:54:22;4.05;;;2.42;;
51296;SDS011;37380;45.186;9.792;2022-10-01T16:56:52;2.40;;;1.83;;
51296;SDS011;37380;45.186;9.792;2022-10-01T16:59:21;2.15;;;1.95;;
51296;SDS011;37380;45.186;9.792;2022-10-01T17:01:55;3.25;;;1.88;;
51296;SDS011;37380;45.186;9.792;2022-10-01T17:04:56;4.05;;;2.05;;
51296;SDS011;37380;45.186;9.792;2022-10-01T17:07:51;3.95;;;2.17;;
51296;SDS011;37380;45.186;9.792;2022-10-01T17:10:20;3.72;;;2.08;;
51296;SDS011;37380;45.186;9.792;2022-10-01T17:12:49;2.75;;;2.13;;
51296;SDS011;37380;45.186;9.792;2022-10-01T17:15:18;9.13;;;2.90;;
51296;SDS011;37380;45.186;9.792;2022-10-01T17:17:48;9.80;;;2.53;;
51296;SDS011;37380;45.186;9.792;2022-10-01T17:20:23;7.07;;;1.85;;
51296;SDS011;37380;45.186;9.792;2022-10-01T17:23:26;2.50;;;2.30;;
51296;SDS011;37380;45.186;9.792;2022-10-01T17:26:28;2.75;;;2.20;;
51296;SDS011;37380;45.186;9.792;2022-10-01T17:29:01;7.47;;;2.70;;
51296;SDS011;37380;45.186;9.792;2022-10-01T17:31:28;4.28;;;3.08;;
51296;SDS011;37380;45.186;9.792;2022-10-01T17:33:55;2.95;;;2.63;;
51296;SDS011;37380;45.186;9.792;2022-10-01T17:36:23;4.57;;;3.67;;
51296;SDS011;37380;45.186;9.792;2022-10-01T17:38:50;3.47;;;2.28;;
51296;SDS011;37380;45.186;9.792;2022-10-01T17:41:23;4.72;;;2.65;;
51296;SDS011;37380;45.186;9.792;2022-10-01T17:44:24;9.38;;;3.92;;
51296;SDS011;37380;45.186;9.792;2022-10-01T17:47:25;6.03;;;3.10;;
51296;SDS011;37380;45.186;9.792;2022-10-01T17:50:19;4.40;;;2.83;;
51296;SDS011;37380;45.186;9.792;2022-10-01T17:52:47;2.85;;;2.42;;
51296;SDS011;37380;45.186;9.792;2022-10-01T17:55:20;9.82;;;2.90;;
51296;SDS011;37380;45.186;9.792;2022-10-01T17:58:15;14.23;;;2.67;;
51296;SDS011;37380;45.186;9.792;2022-10-01T18:00:48;2.63;;;2.15;;
51296;SDS011;37380;45.186;9.792;2022-10-01T18:03:53;5.65;;;2.15;;
51296;SDS011;37380;45.186;9.792;2022-10-01T18:06:45;4.65;;;2.28;;
51296;SDS011;37380;45.186;9.792;2022-10-01T18:09:14;10.48;;;2.83;;
51296;SDS011;37380;45.186;9.792;2022-10-01T18:11:41;3.92;;;2.13;;